<?xml version="1.0" encoding="UTF-8" standalone="no" ?>
<gpx xmlns="http://www.topografix.com/GPX/1/1" xmlns:xsi="http://www.w3.org/2001/XMLSchema-instance" xsi:schemaLocation="http://www.topografix.com/GPX/1/1 http://www.topografix.com/GPX/1/1/gpx.xsd" version="1.1" creator="VisuGPX - https://www.visugpx.com">
  <metadata>
    <name>Balade du 15/02/2017</name>
    <desc><![CDATA[ 2h30 de balade par temps doux et les premières primevères ...]]></desc>
  </metadata>
  <trk>
    <name><![CDATA[15 févr. 2017]]></name>
    <cmt><![CDATA[12:37:56]]></cmt>
    <desc><![CDATA[comment ...]]></desc>
    <trkseg>
      <trkpt lat="45.80507" lon="5.34218">
        <ele>335</ele>
        <time>2017-02-15T11:37:55Z</time>
      </trkpt>
      <trkpt lat="45.80504" lon="5.34216">
        <ele>336</ele>
        <time>2017-02-15T11:37:56Z</time>
      </trkpt>
      <trkpt lat="45.80492" lon="5.34208">
        <ele>338</ele>
        <time>2017-02-15T11:37:58Z</time>
      </trkpt>
      <trkpt lat="45.80486" lon="5.34206">
        <ele>344</ele>
        <time>2017-02-15T11:38:06Z</time>
      </trkpt>
      <trkpt lat="45.80481" lon="5.34202">
        <ele>345</ele>
        <time>2017-02-15T11:38:11Z</time>
      </trkpt>
      <trkpt lat="45.80477" lon="5.34196">
        <ele>346</ele>
        <time>2017-02-15T11:38:16Z</time>
      </trkpt>
      <trkpt lat="45.8045" lon="5.34132">
        <ele>348</ele>
        <time>2017-02-15T11:38:50Z</time>
      </trkpt>
      <trkpt lat="45.80448" lon="5.34118">
        <ele>349</ele>
        <time>2017-02-15T11:38:56Z</time>
      </trkpt>
      <trkpt lat="45.80435" lon="5.34057">
        <ele>353</ele>
        <time>2017-02-15T11:39:29Z</time>
      </trkpt>
      <trkpt lat="45.80433" lon="5.34043">
        <ele>355</ele>
        <time>2017-02-15T11:39:36Z</time>
      </trkpt>
      <trkpt lat="45.80432" lon="5.34006">
        <ele>359</ele>
        <time>2017-02-15T11:39:52Z</time>
      </trkpt>
      <trkpt lat="45.80433" lon="5.3399">
        <ele>362</ele>
        <time>2017-02-15T11:39:58Z</time>
      </trkpt>
      <trkpt lat="45.80427" lon="5.33974">
        <ele>363</ele>
        <time>2017-02-15T11:40:04Z</time>
      </trkpt>
      <trkpt lat="45.80425" lon="5.33955">
        <ele>367</ele>
        <time>2017-02-15T11:40:14Z</time>
      </trkpt>
      <trkpt lat="45.80424" lon="5.33917">
        <ele>371</ele>
        <time>2017-02-15T11:40:31Z</time>
      </trkpt>
      <trkpt lat="45.80428" lon="5.33878">
        <ele>371</ele>
        <time>2017-02-15T11:40:48Z</time>
      </trkpt>
      <trkpt lat="45.80433" lon="5.33849">
        <ele>372</ele>
        <time>2017-02-15T11:41:03Z</time>
      </trkpt>
      <trkpt lat="45.80441" lon="5.33821">
        <ele>374</ele>
        <time>2017-02-15T11:41:18Z</time>
      </trkpt>
      <trkpt lat="45.80452" lon="5.33783">
        <ele>375</ele>
        <time>2017-02-15T11:41:37Z</time>
      </trkpt>
      <trkpt lat="45.80447" lon="5.33735">
        <ele>374</ele>
        <time>2017-02-15T11:41:52Z</time>
      </trkpt>
      <trkpt lat="45.80444" lon="5.33713">
        <ele>372</ele>
        <time>2017-02-15T11:42:02Z</time>
      </trkpt>
      <trkpt lat="45.80429" lon="5.33685">
        <ele>371</ele>
        <time>2017-02-15T11:42:16Z</time>
      </trkpt>
      <trkpt lat="45.80406" lon="5.33648">
        <ele>369</ele>
        <time>2017-02-15T11:42:41Z</time>
      </trkpt>
      <trkpt lat="45.80393" lon="5.33635">
        <ele>370</ele>
        <time>2017-02-15T11:42:50Z</time>
      </trkpt>
      <trkpt lat="45.80387" lon="5.33628">
        <ele>370</ele>
        <time>2017-02-15T11:42:54Z</time>
      </trkpt>
      <trkpt lat="45.80376" lon="5.33625">
        <ele>370</ele>
        <time>2017-02-15T11:43:02Z</time>
      </trkpt>
      <trkpt lat="45.80332" lon="5.33625">
        <ele>369</ele>
        <time>2017-02-15T11:43:28Z</time>
      </trkpt>
      <trkpt lat="45.80289" lon="5.33662">
        <ele>370</ele>
        <time>2017-02-15T11:43:58Z</time>
      </trkpt>
      <trkpt lat="45.80279" lon="5.33674">
        <ele>369</ele>
        <time>2017-02-15T11:44:06Z</time>
      </trkpt>
      <trkpt lat="45.80268" lon="5.33684">
        <ele>368</ele>
        <time>2017-02-15T11:44:14Z</time>
      </trkpt>
      <trkpt lat="45.80255" lon="5.33695">
        <ele>366</ele>
        <time>2017-02-15T11:44:24Z</time>
      </trkpt>
      <trkpt lat="45.80248" lon="5.33702">
        <ele>364</ele>
        <time>2017-02-15T11:44:34Z</time>
      </trkpt>
      <trkpt lat="45.80234" lon="5.33698">
        <ele>361</ele>
        <time>2017-02-15T11:44:47Z</time>
      </trkpt>
      <trkpt lat="45.80193" lon="5.33674">
        <ele>362</ele>
        <time>2017-02-15T11:45:18Z</time>
      </trkpt>
      <trkpt lat="45.80156" lon="5.33658">
        <ele>362</ele>
        <time>2017-02-15T11:45:40Z</time>
      </trkpt>
      <trkpt lat="45.80127" lon="5.33667">
        <ele>363</ele>
        <time>2017-02-15T11:45:59Z</time>
      </trkpt>
      <trkpt lat="45.80069" lon="5.33688">
        <ele>363</ele>
        <time>2017-02-15T11:46:31Z</time>
      </trkpt>
      <trkpt lat="45.80028" lon="5.33723">
        <ele>360</ele>
        <time>2017-02-15T11:46:58Z</time>
      </trkpt>
      <trkpt lat="45.80016" lon="5.3373">
        <ele>359</ele>
        <time>2017-02-15T11:47:05Z</time>
      </trkpt>
      <trkpt lat="45.80008" lon="5.33743">
        <ele>358</ele>
        <time>2017-02-15T11:47:13Z</time>
      </trkpt>
      <trkpt lat="45.7999" lon="5.33773">
        <ele>356</ele>
        <time>2017-02-15T11:47:32Z</time>
      </trkpt>
      <trkpt lat="45.7997" lon="5.33789">
        <ele>356</ele>
        <time>2017-02-15T11:47:48Z</time>
      </trkpt>
      <trkpt lat="45.7994" lon="5.33828">
        <ele>356</ele>
        <time>2017-02-15T11:48:14Z</time>
      </trkpt>
      <trkpt lat="45.79936" lon="5.33849">
        <ele>356</ele>
        <time>2017-02-15T11:48:25Z</time>
      </trkpt>
      <trkpt lat="45.79929" lon="5.3388">
        <ele>356</ele>
        <time>2017-02-15T11:48:38Z</time>
      </trkpt>
      <trkpt lat="45.79909" lon="5.33934">
        <ele>355</ele>
        <time>2017-02-15T11:49:08Z</time>
      </trkpt>
      <trkpt lat="45.79902" lon="5.33938">
        <ele>355</ele>
        <time>2017-02-15T11:49:19Z</time>
      </trkpt>
      <trkpt lat="45.79878" lon="5.33926">
        <ele>356</ele>
        <time>2017-02-15T11:49:39Z</time>
      </trkpt>
      <trkpt lat="45.79829" lon="5.33919">
        <ele>357</ele>
        <time>2017-02-15T11:50:07Z</time>
      </trkpt>
      <trkpt lat="45.79808" lon="5.33916">
        <ele>358</ele>
        <time>2017-02-15T11:50:19Z</time>
      </trkpt>
      <trkpt lat="45.79801" lon="5.33917">
        <ele>358</ele>
        <time>2017-02-15T11:50:26Z</time>
      </trkpt>
      <trkpt lat="45.79792" lon="5.33926">
        <ele>360</ele>
        <time>2017-02-15T11:50:51Z</time>
      </trkpt>
      <trkpt lat="45.7979" lon="5.33927">
        <ele>360</ele>
        <time>2017-02-15T11:51:09Z</time>
      </trkpt>
      <trkpt lat="45.79831" lon="5.33976">
        <ele>363</ele>
        <time>2017-02-15T11:51:42Z</time>
      </trkpt>
      <trkpt lat="45.79848" lon="5.33996">
        <ele>361</ele>
        <time>2017-02-15T11:51:59Z</time>
      </trkpt>
      <trkpt lat="45.79867" lon="5.34017">
        <ele>362</ele>
        <time>2017-02-15T11:52:17Z</time>
      </trkpt>
      <trkpt lat="45.79913" lon="5.34064">
        <ele>363</ele>
        <time>2017-02-15T11:52:50Z</time>
      </trkpt>
      <trkpt lat="45.79924" lon="5.34077">
        <ele>363</ele>
        <time>2017-02-15T11:52:59Z</time>
      </trkpt>
      <trkpt lat="45.79929" lon="5.34085">
        <ele>363</ele>
        <time>2017-02-15T11:53:06Z</time>
      </trkpt>
      <trkpt lat="45.79928" lon="5.34098">
        <ele>364</ele>
        <time>2017-02-15T11:53:19Z</time>
      </trkpt>
      <trkpt lat="45.79917" lon="5.34119">
        <ele>364</ele>
        <time>2017-02-15T11:53:33Z</time>
      </trkpt>
      <trkpt lat="45.79911" lon="5.34136">
        <ele>364</ele>
        <time>2017-02-15T11:53:43Z</time>
      </trkpt>
      <trkpt lat="45.79896" lon="5.34171">
        <ele>364</ele>
        <time>2017-02-15T11:54:02Z</time>
      </trkpt>
      <trkpt lat="45.79868" lon="5.34197">
        <ele>365</ele>
        <time>2017-02-15T11:54:25Z</time>
      </trkpt>
      <trkpt lat="45.79855" lon="5.34211">
        <ele>366</ele>
        <time>2017-02-15T11:54:39Z</time>
      </trkpt>
      <trkpt lat="45.79838" lon="5.34219">
        <ele>367</ele>
        <time>2017-02-15T11:54:52Z</time>
      </trkpt>
      <trkpt lat="45.79821" lon="5.3423">
        <ele>368</ele>
        <time>2017-02-15T11:55:08Z</time>
      </trkpt>
      <trkpt lat="45.7981" lon="5.34239">
        <ele>368</ele>
        <time>2017-02-15T11:55:17Z</time>
      </trkpt>
      <trkpt lat="45.79807" lon="5.3425">
        <ele>368</ele>
        <time>2017-02-15T11:55:22Z</time>
      </trkpt>
      <trkpt lat="45.79811" lon="5.34258">
        <ele>367</ele>
        <time>2017-02-15T11:55:26Z</time>
      </trkpt>
      <trkpt lat="45.79806" lon="5.34268">
        <ele>366</ele>
        <time>2017-02-15T11:55:29Z</time>
      </trkpt>
      <trkpt lat="45.79791" lon="5.34318">
        <ele>365</ele>
        <time>2017-02-15T11:55:55Z</time>
      </trkpt>
      <trkpt lat="45.79794" lon="5.34322">
        <ele>365</ele>
        <time>2017-02-15T11:56:01Z</time>
      </trkpt>
      <trkpt lat="45.79796" lon="5.34328">
        <ele>364</ele>
        <time>2017-02-15T11:56:26Z</time>
      </trkpt>
      <trkpt lat="45.79795" lon="5.3433">
        <ele>365</ele>
        <time>2017-02-15T11:57:30Z</time>
      </trkpt>
    </trkseg>
  </trk>
</gpx>